Time;durP1;ratioP1;P1;durP2;ratioP2;P2;SDS_P1;SDS_P2;PMS_P1;PMS_P2;Temp;Humidity;BMP_temperature;BMP_pressure;BME280_temperature;BME280_humidity;BME280_pressure;Samples;Min_cycle;Max_cycle;Signal;HPM_P1;HPM_P2
2023/01/29 00:01:11;;;;;;;30.77;15.70;;;3.30;99.90;;;;;;5071635;28;20045;-64
2023/01/29 00:03:36;;;;;;;34.60;17.52;;;3.30;99.90;;;;;;5063324;28;20048;-64
2023/01/29 00:06:07;;;;;;;29.35;16.30;;;3.30;99.90;;;;;;5068205;28;20046;-64
2023/01/29 00:08:37;;;;;;;31.07;18.53;;;3.30;99.90;;;;;;5072270;28;20585;-64
2023/01/29 00:11:07;;;;;;;30.55;16.98;;;3.40;99.90;;;;;;5072271;28;20079;-64
2023/01/29 00:13:33;;;;;;;32.75;19.35;;;3.30;99.90;;;;;;5070602;28;20432;-64
2023/01/29 00:16:00;;;;;;;29.33;17.38;;;3.30;99.90;;;;;;5072107;28;20033;-64
2023/01/29 00:18:26;;;;;;;32.05;18.85;;;3.40;99.90;;;;;;5072082;28;20517;-64
2023/01/29 00:20:52;;;;;;;30.17;17.73;;;3.40;99.90;;;;;;5072173;28;20440;-63
2023/01/29 00:23:18;;;;;;;33.13;17.38;;;3.40;99.90;;;;;;5072844;28;20044;-64
2023/01/29 00:25:44;;;;;;;28.52;15.27;;;3.30;99.90;;;;;;5070805;28;20033;-64
2023/01/29 00:28:10;;;;;;;35.85;19.83;;;3.30;99.90;;;;;;5068444;28;20037;-64
2023/01/29 00:30:36;;;;;;;31.48;17.60;;;3.20;99.90;;;;;;5063440;28;20041;-64
2023/01/29 00:33:03;;;;;;;31.92;17.45;;;3.20;99.90;;;;;;5070532;28;20033;-64
2023/01/29 00:35:29;;;;;;;31.88;16.48;;;3.30;99.90;;;;;;5072187;28;20036;-64
2023/01/29 00:37:55;;;;;;;30.35;16.45;;;3.30;99.90;;;;;;5066150;28;20036;-64
2023/01/29 00:40:21;;;;;;;32.60;16.95;;;3.30;99.90;;;;;;5060381;28;20041;-64
2023/01/29 00:45:32;;;;;;;28.75;15.27;;;3.30;99.90;;;;;;5061839;28;20110;-64
2023/01/29 00:47:58;;;;;;;28.70;15.60;;;3.40;99.90;;;;;;5057267;28;20107;-64
2023/01/29 00:50:23;;;;;;;34.75;16.75;;;3.40;99.90;;;;;;5071162;28;20162;-64
2023/01/29 00:52:50;;;;;;;27.67;15.88;;;3.40;99.90;;;;;;5071676;28;20037;-64
2023/01/29 00:55:16;;;;;;;29.00;15.35;;;3.40;99.90;;;;;;5065729;28;20071;-64
2023/01/29 00:57:42;;;;;;;27.85;14.95;;;3.50;99.90;;;;;;5071093;28;20060;-64
2023/01/29 01:00:10;;;;;;;26.35;14.85;;;3.50;99.90;;;;;;5071658;28;20115;-64
2023/01/29 01:05:20;;;;;;;29.05;15.77;;;3.50;99.90;;;;;;5070985;28;20059;-64
2023/01/29 01:07:48;;;;;;;28.77;15.57;;;3.50;99.90;;;;;;5071061;28;20041;-64
2023/01/29 01:10:19;;;;;;;27.95;15.52;;;3.50;99.90;;;;;;5071738;28;20036;-64
2023/01/29 01:12:45;;;;;;;28.58;15.23;;;3.50;99.90;;;;;;5059649;28;20494;-64
2023/01/29 01:15:11;;;;;;;27.27;15.32;;;3.50;99.90;;;;;;5071250;28;20054;-64
2023/01/29 01:17:37;;;;;;;26.92;15.23;;;3.50;99.90;;;;;;5071352;28;20040;-64
2023/01/29 01:20:03;;;;;;;28.13;15.93;;;3.40;99.90;;;;;;5059073;28;20033;-64
2023/01/29 01:22:30;;;;;;;28.50;15.13;;;3.50;99.90;;;;;;5077043;28;20036;-63
2023/01/29 01:24:55;;;;;;;28.08;15.00;;;3.50;99.90;;;;;;5071551;28;20051;-64
2023/01/29 01:27:21;;;;;;;29.00;15.52;;;3.50;99.90;;;;;;5068455;28;20040;-64
2023/01/29 01:29:47;;;;;;;26.58;15.18;;;3.50;99.90;;;;;;5072021;28;20040;-64
2023/01/29 01:32:13;;;;;;;29.58;15.55;;;3.50;99.90;;;;;;5069262;28;20032;-64
2023/01/29 01:34:38;;;;;;;28.17;14.75;;;3.50;99.90;;;;;;5067694;28;20161;-64
2023/01/29 01:37:04;;;;;;;27.23;14.98;;;3.50;99.90;;;;;;5061030;28;20057;-64
2023/01/29 01:39:30;;;;;;;29.52;16.63;;;3.50;99.90;;;;;;5069132;28;20386;-64
2023/01/29 01:41:55;;;;;;;28.48;16.17;;;3.50;99.90;;;;;;5071185;28;20043;-64
2023/01/29 01:45:00;;;;;;;29.55;16.83;;;3.50;99.90;;;;;;5067197;28;20044;-63
2023/01/29 01:47:31;;;;;;;27.30;15.38;;;3.50;99.90;;;;;;5066919;28;20068;-63
2023/01/29 01:50:01;;;;;;;;;;;3.50;99.90;;;;;;5071439;28;20119;-64
2023/01/29 01:52:29;;;;;;;28.27;15.30;;;3.50;99.90;;;;;;5065094;28;19916;-63
2023/01/29 01:54:56;;;;;;;29.52;15.48;;;3.50;99.90;;;;;;5070051;28;20032;-64
2023/01/29 01:57:24;;;;;;;31.40;17.00;;;3.40;99.90;;;;;;5070971;28;20036;-64
2023/01/29 02:00:08;;;;;;;31.73;16.25;;;3.50;99.90;;;;;;5070938;28;20115;-64
2023/01/29 02:10:49;;;;;;;28.90;15.65;;;3.40;99.90;;;;;;5071681;28;20047;-64
2023/01/29 02:13:16;;;;;;;25.20;15.40;;;3.50;99.90;;;;;;5082833;28;20036;-64
2023/01/29 02:15:45;;;;;;;30.77;16.90;;;3.40;99.90;;;;;;5095102;28;20051;-64
2023/01/29 02:18:12;;;;;;;28.80;15.88;;;3.50;99.90;;;;;;5079725;28;20045;-63
2023/01/29 02:20:41;;;;;;;29.65;16.45;;;3.50;99.90;;;;;;5058450;28;20037;-64
2023/01/29 02:23:40;;;;;;;30.38;16.50;;;3.40;99.90;;;;;;5080754;28;20040;-63
2023/01/29 02:26:18;;;;;;;28.73;15.55;;;3.50;99.90;;;;;;5069132;28;20107;-64
2023/01/29 02:28:56;;;;;;;33.75;16.65;;;3.50;99.90;;;;;;5070737;28;20033;-64
2023/01/29 02:31:33;;;;;;;28.30;15.98;;;3.50;99.90;;;;;;5074216;28;20037;-64
2023/01/29 02:34:31;;;;;;;31.30;16.42;;;3.50;99.90;;;;;;5072023;28;20097;-64
2023/01/29 02:37:09;;;;;;;30.30;15.88;;;3.50;99.90;;;;;;5067483;28;20107;-64
2023/01/29 02:39:48;;;;;;;28.23;15.75;;;3.50;99.90;;;;;;5073952;28;20162;-63
2023/01/29 02:42:34;;;;;;;31.00;16.92;;;3.50;99.90;;;;;;5064448;28;20052;-64
2023/01/29 02:45:17;;;;;;;30.50;17.17;;;3.50;99.90;;;;;;5072738;28;20123;-63
2023/01/29 02:47:57;;;;;;;34.08;16.58;;;3.50;99.90;;;;;;5073517;28;20383;-64
2023/01/29 02:50:26;;;;;;;30.48;17.23;;;3.40;99.90;;;;;;5062434;28;20089;-64
2023/01/29 02:53:00;;;;;;;33.67;18.17;;;3.50;99.90;;;;;;5058397;28;20613;-64
2023/01/29 02:55:26;;;;;;;30.67;16.90;;;3.50;99.90;;;;;;5073824;28;20093;-64
2023/01/29 02:57:58;;;;;;;29.38;16.48;;;3.50;99.90;;;;;;5066818;28;20041;-64
2023/01/29 03:00:29;;;;;;;31.33;16.20;;;3.50;99.90;;;;;;5063618;28;20514;-64
2023/01/29 03:03:13;;;;;;;34.75;16.95;;;3.50;99.90;;;;;;5088080;28;20063;-64
2023/01/29 03:06:05;;;;;;;31.17;16.50;;;3.50;99.90;;;;;;5073789;28;20072;-64
2023/01/29 03:09:03;;;;;;;33.08;17.08;;;3.50;99.90;;;;;;5071755;28;20040;-63
2023/01/29 03:11:34;;;;;;;31.38;17.70;;;3.50;99.90;;;;;;5061522;28;20399;-64
2023/01/29 03:14:07;;;;;;;32.85;17.73;;;3.40;99.90;;;;;;5087573;28;20115;-64
2023/01/29 03:16:35;;;;;;;32.08;18.00;;;3.50;99.90;;;;;;5082503;28;20079;-64
2023/01/29 03:19:16;;;;;;;30.30;17.33;;;3.50;99.90;;;;;;5083988;28;20040;-63
2023/01/29 03:21:57;;;;;;;35.67;19.33;;;3.50;99.90;;;;;;5073326;28;20528;-64
2023/01/29 03:33:23;;;;;;;36.53;20.10;;;3.50;99.90;;;;;;5066242;28;20052;-64
2023/01/29 03:35:55;;;;;;;36.08;19.65;;;3.50;99.90;;;;;;5060773;28;20047;-63
2023/01/29 03:38:20;;;;;;;32.75;19.05;;;3.50;99.90;;;;;;5081240;28;20040;-64
2023/01/29 03:40:57;;;;;;;33.60;17.25;;;3.50;99.90;;;;;;5069825;28;20048;-64
2023/01/29 03:43:53;;;;;;;36.40;17.55;;;3.50;99.90;;;;;;5072314;28;20114;-64
2023/01/29 03:46:52;;;;;;;34.58;18.50;;;3.50;99.90;;;;;;5059297;28;20142;-64
2023/01/29 03:49:20;;;;;;;38.58;19.98;;;3.50;99.90;;;;;;5056837;28;20052;-64
2023/01/29 03:52:02;;;;;;;39.08;20.20;;;3.50;99.90;;;;;;5098245;22;20032;-66
2023/01/29 03:54:47;;;;;;;36.78;19.95;;;3.60;99.90;;;;;;5091466;28;20491;-66
2023/01/29 03:57:36;;;;;;;35.13;18.88;;;3.60;99.90;;;;;;5092871;28;20107;-66
2023/01/29 04:00:17;;;;;;;32.05;18.23;;;3.60;99.90;;;;;;5080452;28;20048;-66
2023/01/29 04:03:17;;;;;;;36.42;19.58;;;3.60;99.90;;;;;;5065968;28;20039;-66
2023/01/29 04:05:50;;;;;;;36.08;17.83;;;3.60;99.90;;;;;;5071170;28;20032;-66
2023/01/29 04:08:29;;;;;;;36.15;18.58;;;3.70;99.90;;;;;;5066151;28;20537;-66
2023/01/29 04:11:00;;;;;;;37.75;19.00;;;3.70;99.90;;;;;;5063887;28;20364;-66
2023/01/29 04:13:26;;;;;;;;;;;3.70;99.90;;;;;;5073099;28;20047;-65
2023/01/29 04:15:59;;;;;;;33.72;18.15;;;3.70;99.90;;;;;;5063441;28;19916;-66
2023/01/29 04:18:25;;;;;;;37.42;17.58;;;3.70;99.90;;;;;;5064615;28;20494;-66
2023/01/29 04:20:52;;;;;;;33.80;18.38;;;3.70;99.90;;;;;;5070336;28;20050;-66
2023/01/29 04:23:25;;;;;;;37.03;18.88;;;3.80;99.90;;;;;;5064576;28;20073;-66
2023/01/29 04:26:29;;;;;;;34.45;18.38;;;3.80;99.90;;;;;;5069358;28;20067;-66
2023/01/29 04:29:31;;;;;;;36.45;19.05;;;3.80;99.90;;;;;;5063935;28;20041;-66
2023/01/29 04:32:09;;;;;;;33.10;17.75;;;3.80;99.90;;;;;;5069560;28;20505;-66
2023/01/29 04:34:59;;;;;;;34.85;18.55;;;3.80;99.90;;;;;;5059010;28;20032;-66
2023/01/29 04:37:27;;;;;;;33.65;18.23;;;3.80;99.90;;;;;;5065115;28;20043;-66
2023/01/29 04:40:07;;;;;;;36.75;18.65;;;3.80;99.90;;;;;;5068404;28;20040;-66
2023/01/29 04:42:51;;;;;;;32.45;18.13;;;3.80;99.90;;;;;;5069704;28;20063;-66
2023/01/29 04:45:38;;;;;;;31.88;18.20;;;3.80;99.90;;;;;;5070090;28;20046;-65
2023/01/29 04:48:15;;;;;;;32.17;18.25;;;3.80;99.90;;;;;;5057262;28;20033;-65
2023/01/29 04:50:49;;;;;;;33.90;18.42;;;3.90;99.90;;;;;;5069223;28;20098;-65
2023/01/29 04:53:25;;;;;;;35.17;19.55;;;3.90;99.90;;;;;;5070445;28;20044;-65
2023/01/29 04:55:59;;;;;;;34.50;19.10;;;3.90;99.90;;;;;;5067999;28;20109;-65
2023/01/29 04:58:34;;;;;;;33.92;20.13;;;3.90;99.90;;;;;;5060882;28;20041;-65
2023/01/29 05:01:03;;;;;;;39.47;20.88;;;3.90;99.90;;;;;;5069796;28;20063;-66
2023/01/29 05:03:31;;;;;;;36.63;19.90;;;3.90;99.90;;;;;;5071757;28;20048;-66
2023/01/29 05:05:59;;;;;;;38.10;20.30;;;3.90;99.90;;;;;;5062397;28;20530;-66
2023/01/29 05:08:29;;;;;;;37.20;19.77;;;3.90;99.90;;;;;;5064330;28;20041;-66
2023/01/29 05:10:57;;;;;;;34.60;19.92;;;3.90;99.90;;;;;;5069537;28;20032;-66
2023/01/29 05:13:25;;;;;;;35.75;19.55;;;3.90;99.90;;;;;;5066258;28;20044;-66
2023/01/29 05:15:56;;;;;;;36.17;19.88;;;3.90;99.90;;;;;;5070531;28;20037;-66
2023/01/29 05:18:22;;;;;;;34.30;19.73;;;4.00;99.90;;;;;;5069815;28;20090;-66
2023/01/29 05:20:48;;;;;;;36.65;19.63;;;4.00;99.90;;;;;;5067232;28;20048;-66
2023/01/29 05:23:16;;;;;;;36.10;20.30;;;3.90;99.90;;;;;;5069065;28;20048;-65
2023/01/29 05:25:43;;;;;;;33.55;19.10;;;4.00;99.90;;;;;;5070861;28;20119;-65
2023/01/29 05:28:18;;;;;;;36.00;19.42;;;4.00;99.90;;;;;;5069583;28;20136;-65
2023/01/29 05:30:48;;;;;;;38.80;20.08;;;4.00;99.90;;;;;;5067364;28;20036;-65
2023/01/29 05:33:19;;;;;;;37.47;20.50;;;4.00;99.90;;;;;;5062357;28;20036;-65
2023/01/29 05:35:45;;;;;;;39.92;20.73;;;3.90;99.90;;;;;;5070174;28;20036;-65
2023/01/29 05:38:12;;;;;;;33.67;19.40;;;3.90;99.90;;;;;;5064162;28;20056;-66
2023/01/29 05:40:38;;;;;;;37.53;21.15;;;4.00;99.90;;;;;;5066372;28;20037;-68
2023/01/29 05:43:04;;;;;;;37.40;20.75;;;3.90;99.90;;;;;;5061949;28;20044;-66
2023/01/29 05:45:31;;;;;;;33.70;21.10;;;3.90;99.90;;;;;;5069268;28;20117;-67
2023/01/29 05:47:58;;;;;;;35.75;20.48;;;3.90;99.90;;;;;;5057934;28;20393;-66
2023/01/29 05:50:25;;;;;;;39.90;22.27;;;3.90;99.90;;;;;;5074319;28;20035;-65
2023/01/29 05:52:59;;;;;;;46.97;22.80;;;3.90;99.90;;;;;;5071240;28;20040;-65
2023/01/29 05:55:26;;;;;;;40.42;20.83;;;3.90;99.90;;;;;;5074918;28;20051;-65
2023/01/29 05:57:51;;;;;;;36.38;21.40;;;3.90;99.90;;;;;;5075117;28;20040;-66
2023/01/29 06:00:17;;;;;;;41.72;22.10;;;3.90;99.90;;;;;;5071913;28;20115;-65
2023/01/29 06:02:43;;;;;;;34.63;20.02;;;3.80;99.90;;;;;;5068920;28;20041;-66
2023/01/29 06:05:09;;;;;;;39.17;22.23;;;3.80;99.90;;;;;;5074008;28;20032;-65
2023/01/29 06:07:35;;;;;;;39.47;22.30;;;3.80;99.90;;;;;;5073928;28;20563;-66
2023/01/29 06:10:01;;;;;;;38.88;22.05;;;3.80;99.90;;;;;;5073388;28;20040;-65
2023/01/29 06:12:27;;;;;;;41.65;21.80;;;3.90;99.90;;;;;;5073048;28;20559;-66
2023/01/29 06:14:52;;;;;;;38.55;22.15;;;3.80;99.90;;;;;;5069049;28;20656;-66
2023/01/29 06:17:18;;;;;;;42.78;21.33;;;3.80;99.90;;;;;;5074354;28;20037;-65
2023/01/29 06:19:44;;;;;;;42.80;22.73;;;3.80;99.90;;;;;;5067360;28;20146;-65
2023/01/29 06:22:09;;;;;;;41.97;22.35;;;3.80;99.90;;;;;;5066619;28;20133;-66
2023/01/29 06:24:35;;;;;;;41.38;24.38;;;3.80;99.90;;;;;;5080054;28;20040;-66
2023/01/29 06:27:00;;;;;;;40.80;24.23;;;3.80;99.90;;;;;;5080678;28;20036;-65
2023/01/29 06:29:26;;;;;;;40.53;23.52;;;3.80;99.90;;;;;;5077120;28;20045;-66
2023/01/29 06:31:52;;;;;;;39.22;22.35;;;3.80;99.90;;;;;;5078635;28;20044;-65
2023/01/29 06:34:17;;;;;;;42.58;26.27;;;3.70;99.90;;;;;;5082130;28;20056;-65
2023/01/29 06:36:43;;;;;;;42.90;25.20;;;3.70;99.90;;;;;;5075949;28;20037;-65
2023/01/29 06:39:08;;;;;;;45.22;26.08;;;3.70;99.90;;;;;;5078111;28;20043;-65
2023/01/29 06:41:34;;;;;;;40.15;23.52;;;3.70;99.90;;;;;;5076665;28;20086;-65
2023/01/29 06:44:00;;;;;;;43.30;24.38;;;3.70;99.90;;;;;;5083281;28;20058;-65
2023/01/29 06:46:26;;;;;;;43.28;24.33;;;3.70;99.90;;;;;;5075401;28;20149;-65
2023/01/29 06:48:51;;;;;;;39.10;22.95;;;3.70;99.90;;;;;;5076642;28;20036;-66
2023/01/29 06:51:17;;;;;;;45.70;25.05;;;3.70;99.90;;;;;;5075084;28;20039;-66
2023/01/29 06:53:43;;;;;;;44.15;25.20;;;3.70;99.90;;;;;;5072014;28;20098;-66
2023/01/29 06:56:08;;;;;;;42.65;25.13;;;3.70;99.90;;;;;;5075468;28;20036;-66
2023/01/29 06:58:37;;;;;;;40.22;23.42;;;3.70;99.90;;;;;;5078616;28;20391;-66
2023/01/29 07:01:08;;;;;;;39.67;22.88;;;3.70;99.90;;;;;;5076720;28;20531;-67
2023/01/29 07:03:34;;;;;;;44.28;26.17;;;3.70;99.90;;;;;;5081382;28;20086;-66
2023/01/29 07:06:00;;;;;;;42.88;26.05;;;3.60;99.90;;;;;;5075116;28;20036;-66
2023/01/29 07:08:27;;;;;;;47.25;29.23;;;3.70;99.90;;;;;;5077067;28;20048;-66
2023/01/29 07:10:58;;;;;;;43.55;25.58;;;3.70;99.90;;;;;;5073998;28;20071;-66
2023/01/29 07:13:24;;;;;;;;;;;3.70;99.90;;;;;;5078046;28;20044;-66
2023/01/29 07:15:49;;;;;;;42.53;23.02;;;3.70;99.90;;;;;;5077593;28;19924;-67
2023/01/29 07:18:15;;;;;;;46.45;25.65;;;3.70;99.90;;;;;;5072950;28;20990;-67
2023/01/29 07:20:42;;;;;;;43.60;23.10;;;3.70;99.90;;;;;;5071659;28;20055;-65
2023/01/29 07:23:12;;;;;;;42.03;23.70;;;3.70;99.90;;;;;;5077315;28;20510;-68
2023/01/29 07:25:38;;;;;;;37.97;21.00;;;3.70;99.90;;;;;;5076172;28;20085;-67
2023/01/29 07:28:04;;;;;;;46.00;25.65;;;3.70;99.90;;;;;;5075052;28;20047;-67
2023/01/29 07:30:30;;;;;;;42.58;24.10;;;3.70;99.90;;;;;;5077943;28;20128;-67
2023/01/29 07:33:07;;;;;;;40.95;22.85;;;3.70;99.90;;;;;;5085180;28;20119;-67
2023/01/29 07:35:38;;;;;;;43.33;24.58;;;3.70;99.90;;;;;;5082834;28;20032;-66
2023/01/29 07:38:03;;;;;;;46.42;25.42;;;3.70;99.90;;;;;;5074664;28;20054;-66
2023/01/29 07:40:29;;;;;;;36.60;18.85;;;3.70;99.90;;;;;;5078787;28;20037;-67
2023/01/29 07:43:03;;;;;;;44.67;25.83;;;3.70;99.90;;;;;;5076521;28;20159;-67
2023/01/29 07:45:32;;;;;;;38.85;22.67;;;3.70;99.90;;;;;;5070623;28;20047;-67
2023/01/29 07:47:58;;;;;;;42.03;25.90;;;3.70;99.90;;;;;;5052505;28;20041;-67
2023/01/29 07:50:25;;;;;;;43.30;27.88;;;3.70;99.90;;;;;;5074758;28;20046;-66
2023/01/29 07:52:53;;;;;;;39.85;23.88;;;3.80;99.90;;;;;;5071953;28;20888;-66
2023/01/29 07:55:19;;;;;;;44.25;23.92;;;3.70;99.90;;;;;;5069753;28;20512;-66
2023/01/29 07:57:45;;;;;;;49.55;26.85;;;3.70;99.90;;;;;;5079034;28;20073;-67
2023/01/29 08:00:13;;;;;;;40.20;23.75;;;3.70;99.90;;;;;;5066029;28;20169;-68
2023/01/29 08:02:40;;;;;;;44.95;25.52;;;3.80;99.90;;;;;;5072170;28;20729;-67
2023/01/29 08:05:06;;;;;;;46.08;27.67;;;3.80;99.90;;;;;;5074826;28;20051;-66
2023/01/29 08:07:32;;;;;;;44.03;25.15;;;3.80;99.90;;;;;;5083835;28;20040;-67
2023/01/29 08:09:57;;;;;;;38.35;22.10;;;3.80;99.90;;;;;;5065414;28;20040;-67
2023/01/29 08:12:23;;;;;;;40.95;22.63;;;3.80;99.90;;;;;;5070430;28;20036;-67
2023/01/29 08:14:49;;;;;;;45.28;25.02;;;3.80;99.90;;;;;;5069388;28;20044;-67
2023/01/29 08:17:14;;;;;;;41.70;22.58;;;3.80;99.90;;;;;;5071024;28;20111;-67
2023/01/29 08:19:40;;;;;;;46.63;28.05;;;3.80;99.90;;;;;;5071737;28;20494;-68
2023/01/29 08:22:06;;;;;;;43.63;24.33;;;3.80;99.90;;;;;;5073718;28;20067;-67
2023/01/29 08:24:31;;;;;;;45.72;25.27;;;3.80;99.90;;;;;;5070242;28;20193;-67
2023/01/29 08:26:57;;;;;;;42.90;23.90;;;3.80;99.90;;;;;;5075943;28;20043;-67
2023/01/29 08:29:23;;;;;;;43.80;24.83;;;3.80;99.90;;;;;;5072917;28;20044;-67
2023/01/29 08:31:49;;;;;;;41.95;24.67;;;3.80;99.90;;;;;;5073042;28;20827;-67
2023/01/29 08:34:14;;;;;;;43.22;23.13;;;3.80;99.90;;;;;;5069441;28;20036;-67
2023/01/29 08:36:40;;;;;;;43.65;24.63;;;3.80;99.90;;;;;;5075178;28;20033;-67
2023/01/29 08:39:06;;;;;;;47.78;23.67;;;3.80;99.90;;;;;;5075709;28;20031;-67
2023/01/29 08:41:31;;;;;;;44.95;25.98;;;3.90;99.90;;;;;;5078667;28;20041;-68
2023/01/29 08:43:59;;;;;;;42.08;22.48;;;3.80;99.90;;;;;;5069526;28;20041;-67
2023/01/29 08:46:24;;;;;;;37.83;21.50;;;3.90;99.90;;;;;;5070784;28;20088;-68
2023/01/29 08:48:50;;;;;;;43.97;26.77;;;3.90;99.90;;;;;;5071375;28;20532;-67
2023/01/29 08:51:16;;;;;;;42.55;23.83;;;3.90;99.90;;;;;;5060375;28;20037;-67
2023/01/29 08:53:41;;;;;;;44.05;25.67;;;3.90;99.90;;;;;;5062849;28;20107;-67
2023/01/29 08:56:07;;;;;;;42.28;24.88;;;3.90;99.90;;;;;;5070613;28;20032;-67
2023/01/29 08:58:33;;;;;;;39.13;22.45;;;3.90;99.90;;;;;;5068583;28;20040;-67
2023/01/29 09:01:06;;;;;;;38.78;23.23;;;3.90;99.90;;;;;;5062517;28;20040;-67
2023/01/29 09:03:31;;;;;;;42.20;22.25;;;3.90;99.90;;;;;;5070952;28;20528;-67
2023/01/29 09:06:05;;;;;;;41.38;23.52;;;3.90;99.90;;;;;;5069034;28;20045;-67
2023/01/29 09:08:31;;;;;;;41.80;24.85;;;3.90;99.90;;;;;;5060083;28;20067;-67
2023/01/29 09:11:00;;;;;;;37.80;23.00;;;3.90;99.90;;;;;;5069444;28;20032;-67
2023/01/29 09:13:25;;;;;;;38.65;23.08;;;4.00;99.90;;;;;;5071896;28;20072;-67
2023/01/29 09:15:51;;;;;;;45.08;26.50;;;4.00;99.90;;;;;;5068939;28;20075;-66
2023/01/29 09:18:17;;;;;;;43.42;25.15;;;4.00;99.90;;;;;;5060111;28;20506;-67
2023/01/29 09:20:42;;;;;;;42.15;26.13;;;4.00;99.90;;;;;;5070508;28;20072;-67
2023/01/29 09:23:09;;;;;;;39.40;21.70;;;4.00;99.90;;;;;;5064927;28;20037;-67
2023/01/29 09:25:36;;;;;;;41.22;23.67;;;4.00;99.90;;;;;;5057837;28;20068;-67
2023/01/29 09:28:02;;;;;;;50.88;23.92;;;4.10;99.90;;;;;;5071129;28;20072;-67
2023/01/29 09:30:27;;;;;;;43.80;22.60;;;4.10;99.90;;;;;;5071448;28;20083;-67
2023/01/29 09:32:53;;;;;;;41.55;24.08;;;4.10;99.90;;;;;;5066081;28;20103;-67
2023/01/29 09:35:20;;;;;;;40.40;23.65;;;4.10;99.90;;;;;;5069397;28;20044;-68
2023/01/29 09:37:49;;;;;;;45.45;26.92;;;4.20;99.90;;;;;;5071240;28;20097;-67
2023/01/29 09:40:32;;;;;;;38.58;22.83;;;4.20;99.90;;;;;;5059109;28;20091;-67
2023/01/29 09:43:05;;;;;;;43.35;26.00;;;4.30;99.90;;;;;;5063235;28;20044;-67
2023/01/29 09:45:31;;;;;;;43.60;26.17;;;4.30;99.90;;;;;;5069695;28;20414;-67
2023/01/29 09:48:02;;;;;;;43.38;26.05;;;4.40;99.90;;;;;;5069932;28;20040;-67
2023/01/29 09:50:34;;;;;;;40.88;22.70;;;4.50;99.90;;;;;;5067095;28;20044;-67
2023/01/29 09:53:31;;;;;;;41.88;25.88;;;4.50;99.90;;;;;;5098827;22;20049;-63
2023/01/29 09:56:20;;;;;;;39.00;22.25;;;4.60;99.90;;;;;;5050302;28;20579;-67
2023/01/29 09:58:46;;;;;;;42.78;24.02;;;4.60;99.90;;;;;;5023827;28;20053;-64
2023/01/29 10:01:15;;;;;;;42.40;25.70;;;4.70;99.90;;;;;;5046904;28;20466;-64
2023/01/29 10:03:53;;;;;;;39.00;20.88;;;4.70;99.90;;;;;;5031271;28;20041;-64
2023/01/29 10:06:28;;;;;;;38.97;23.88;;;4.80;99.90;;;;;;5029583;28;20045;-66
2023/01/29 10:08:59;;;;;;;41.53;25.60;;;4.90;99.90;;;;;;5025153;28;20045;-64
2023/01/29 10:11:37;;;;;;;42.67;27.05;;;4.90;99.90;;;;;;5041894;28;20037;-64
2023/01/29 10:14:17;;;;;;;41.88;25.85;;;4.90;99.90;;;;;;5039438;28;20041;-63
2023/01/29 10:16:51;;;;;;;42.75;25.30;;;4.90;99.90;;;;;;5042265;28;20034;-64
2023/01/29 10:19:46;;;;;;;39.67;26.35;;;5.00;99.90;;;;;;5047069;28;20059;-63
2023/01/29 10:22:23;;;;;;;38.72;22.88;;;4.90;99.90;;;;;;5050207;28;20037;-65
2023/01/29 10:24:58;;;;;;;39.55;22.50;;;4.90;99.90;;;;;;5040699;28;20123;-64
2023/01/29 10:27:33;;;;;;;42.03;24.10;;;5.00;99.90;;;;;;5042092;28;20061;-64
2023/01/29 10:30:03;;;;;;;37.97;22.38;;;4.90;99.90;;;;;;5024777;28;20049;-64
2023/01/29 10:32:29;;;;;;;45.05;26.55;;;5.00;99.90;;;;;;5031698;28;20162;-64
2023/01/29 10:35:16;;;;;;;39.65;23.67;;;5.00;99.90;;;;;;5042510;28;20044;-64
2023/01/29 10:37:42;;;;;;;38.00;22.45;;;5.00;99.90;;;;;;5044811;28;20068;-64
2023/01/29 10:40:38;;;;;;;42.65;23.63;;;5.00;99.90;;;;;;5045755;28;20033;-65
2023/01/29 10:43:13;;;;;;;38.88;21.95;;;5.00;99.90;;;;;;5030631;28;20552;-64
2023/01/29 10:45:45;;;;;;;43.15;23.98;;;5.00;99.90;;;;;;5048294;28;20380;-65
2023/01/29 10:48:36;;;;;;;41.17;25.25;;;5.00;99.90;;;;;;5048514;28;20052;-64
2023/01/29 10:51:27;;;;;;;42.78;22.95;;;5.00;99.90;;;;;;5029293;28;20061;-64
2023/01/29 10:53:58;;;;;;;39.20;21.67;;;5.10;99.90;;;;;;5031626;28;20044;-65
2023/01/29 10:57:00;;;;;;;;;;;5.00;99.90;;;;;;5038053;28;20045;-63
2023/01/29 10:59:41;;;;;;;39.83;22.20;;;5.00;99.90;;;;;;4971723;28;19918;-64
2023/01/29 11:02:15;;;;;;;41.53;23.67;;;5.10;99.90;;;;;;5032165;28;20894;-65
2023/01/29 11:04:40;;;;;;;37.30;21.13;;;5.10;99.90;;;;;;5041176;28;20033;-63
2023/01/29 11:07:07;;;;;;;39.65;22.42;;;5.20;99.90;;;;;;5043388;28;20052;-64
2023/01/29 11:09:49;;;;;;;37.65;21.52;;;5.20;99.90;;;;;;5042510;28;20043;-64
2023/01/29 11:12:21;;;;;;;38.65;22.67;;;5.20;99.90;;;;;;5038723;28;20080;-65
2023/01/29 11:14:54;;;;;;;36.33;21.30;;;5.20;99.90;;;;;;5038751;28;20033;-64
2023/01/29 11:17:23;;;;;;;41.78;23.15;;;5.20;99.90;;;;;;5040479;28;20033;-64
2023/01/29 11:19:50;;;;;;;35.22;21.80;;;5.20;99.90;;;;;;5039669;28;20132;-64
2023/01/29 11:22:21;;;;;;;42.10;24.20;;;5.30;99.90;;;;;;5044977;28;20423;-64
2023/01/29 11:25:10;;;;;;;39.97;21.77;;;5.20;99.90;;;;;;5037448;28;20067;-64
2023/01/29 11:27:43;;;;;;;39.42;21.95;;;5.20;99.90;;;;;;5032373;28;20047;-65
2023/01/29 11:30:22;;;;;;;37.28;20.98;;;5.30;99.90;;;;;;5048504;28;20090;-64
2023/01/29 11:33:03;;;;;;;39.03;22.00;;;5.30;99.90;;;;;;5038561;28;20045;-65
2023/01/29 11:35:31;;;;;;;39.88;23.65;;;5.30;99.90;;;;;;5040890;28;20044;-65
2023/01/29 11:38:07;;;;;;;38.92;21.60;;;5.20;99.90;;;;;;5045947;28;20065;-65
2023/01/29 11:40:38;;;;;;;40.55;22.80;;;5.30;99.90;;;;;;5043495;28;20037;-65
2023/01/29 11:43:19;;;;;;;36.53;22.92;;;5.30;99.90;;;;;;5034624;28;20548;-65
2023/01/29 11:45:46;;;;;;;37.80;22.37;;;5.20;99.90;;;;;;5047661;28;20037;-65
2023/01/29 11:48:29;;;;;;;40.20;24.33;;;5.20;99.90;;;;;;5039617;28;20037;-65
2023/01/29 11:50:59;;;;;;;35.88;21.98;;;5.10;99.90;;;;;;5025527;28;20029;-65
2023/01/29 11:53:42;;;;;;;36.95;21.05;;;5.10;99.90;;;;;;5040113;28;20073;-64
2023/01/29 11:56:30;;;;;;;43.17;21.77;;;5.00;99.90;;;;;;5044777;28;20120;-65
2023/01/29 11:58:57;;;;;;;40.50;22.38;;;5.10;99.90;;;;;;5042610;28;20072;-65
2023/01/29 12:01:31;;;;;;;44.17;25.27;;;5.10;99.90;;;;;;5048630;28;20135;-65
2023/01/29 12:03:57;;;;;;;41.40;23.48;;;5.10;99.90;;;;;;5049273;28;20083;-65
2023/01/29 12:06:27;;;;;;;41.53;23.15;;;5.10;99.90;;;;;;5042393;28;20041;-65
2023/01/29 12:08:58;;;;;;;41.95;23.67;;;5.10;99.90;;;;;;5041613;28;20048;-65
2023/01/29 12:11:34;;;;;;;36.85;22.85;;;5.20;99.90;;;;;;5031957;28;20068;-66
2023/01/29 12:14:05;;;;;;;40.13;22.02;;;5.20;99.90;;;;;;5041021;28;20033;-65
2023/01/29 12:16:40;;;;;;;39.90;23.70;;;5.10;99.90;;;;;;5036089;28;20041;-65
2023/01/29 12:19:39;;;;;;;42.65;25.45;;;5.10;99.90;;;;;;5034824;28;20299;-64
2023/01/29 12:22:30;;;;;;;43.35;24.25;;;5.20;99.90;;;;;;5041904;28;20165;-65
2023/01/29 12:25:02;;;;;;;41.33;23.58;;;5.10;99.90;;;;;;5042530;28;20042;-67
2023/01/29 12:27:46;;;;;;;42.15;25.05;;;5.10;99.90;;;;;;5022974;28;20143;-66
2023/01/29 12:30:21;;;;;;;45.30;23.23;;;5.10;99.90;;;;;;5039801;28;20033;-66
2023/01/29 12:33:15;;;;;;;40.72;24.70;;;5.10;99.90;;;;;;5040415;28;20159;-66
2023/01/29 12:35:46;;;;;;;40.65;22.92;;;5.00;99.90;;;;;;5045962;28;20691;-66
2023/01/29 12:38:20;;;;;;;39.03;22.75;;;4.90;99.90;;;;;;5023782;28;20040;-65
2023/01/29 12:40:54;;;;;;;38.88;22.77;;;4.90;99.90;;;;;;5022483;28;20041;-64
2023/01/29 12:43:41;;;;;;;39.85;23.10;;;4.90;99.90;;;;;;5015870;28;20056;-65
2023/01/29 12:46:14;;;;;;;38.88;20.70;;;4.90;99.90;;;;;;5042823;28;20037;-65
2023/01/29 12:48:42;;;;;;;43.00;24.80;;;4.90;99.90;;;;;;5045185;28;20559;-66
2023/01/29 12:51:18;;;;;;;44.97;22.98;;;4.90;99.90;;;;;;5045306;28;20435;-66
2023/01/29 12:53:49;;;;;;;44.20;24.25;;;4.90;99.90;;;;;;5043580;28;20035;-64
2023/01/29 12:56:24;;;;;;;44.88;25.42;;;4.80;99.90;;;;;;5025475;28;20041;-65
2023/01/29 12:58:52;;;;;;;42.72;24.70;;;4.90;99.90;;;;;;5030236;28;20051;-65
2023/01/29 13:01:33;;;;;;;41.40;22.90;;;4.90;99.90;;;;;;5018288;28;20451;-65
2023/01/29 13:04:13;;;;;;;44.53;25.00;;;4.90;99.90;;;;;;5040215;28;20490;-66
2023/01/29 13:07:08;;;;;;;48.58;26.77;;;4.90;99.90;;;;;;5045077;28;20568;-66
2023/01/29 13:09:36;;;;;;;43.42;23.08;;;4.80;99.90;;;;;;5047859;28;20087;-64
2023/01/29 13:12:07;;;;;;;51.13;26.10;;;4.80;99.90;;;;;;5045141;28;20063;-66
2023/01/29 13:14:39;;;;;;;41.97;25.67;;;4.70;99.90;;;;;;5027755;28;20049;-68
2023/01/29 13:17:13;;;;;;;43.10;24.52;;;4.70;99.90;;;;;;5022960;28;20042;-67
2023/01/29 13:19:45;;;;;;;45.38;25.90;;;4.70;99.90;;;;;;5022673;28;20037;-66
2023/01/29 13:22:35;;;;;;;42.83;24.17;;;4.70;99.90;;;;;;5024720;28;20395;-67
2023/01/29 13:25:02;;;;;;;48.35;24.08;;;4.70;99.90;;;;;;5021987;28;20045;-67